CheckWX is a tool to help pilots better visualize weather data.  It is not intended as a substitute for an official pre-flight weather briefing.

13:23:30 UTC

KCCY METAR
Northeast Iowa Regional Airport
Charles City, Iowa, USA
Current

9 mins ago

KCCY 191315Z AUTO 34006KT 10SM SCT036 BKN047 OVC060 M16/M19 A3062 RMK AO2
Observed
Feb-19 @ 13:15 UTC
Wind
  • 340° at 6 KTS
Visibility
10 SM
Flight Rules
VFR
Cloud Levels
  • Scattered at 3,600' AGL
  • Broken at 4,700' AGL
  • Overcast at 6,000' AGL
Temperature
-16°C / 3°F
Dewpoint
-19°C / -2°F
Humidity
78%
Altimeter
30.62" Hg
Pressure
1036.92 hPa
Previous

29 mins ago

KCCY 191255Z AUTO 33005KT 10SM SCT037 OVC060 M16/M20 A3061 RMK AO2
Observed
Feb-19 @ 12:55 UTC
Wind
  • 330° at 5 KTS
Visibility
10 SM
Flight Rules
VFR
Cloud Levels
  • Scattered at 3,700' AGL
  • Overcast at 6,000' AGL
Temperature
-16°C / 3°F
Dewpoint
-20°C / -4°F
Humidity
72%
Altimeter
30.61" Hg
Pressure
1036.62 hPa
Previous

49 mins ago

KCCY 191235Z AUTO 33006KT 10SM SCT037 OVC050 M16/M20 A3061 RMK AO2
Observed
Feb-19 @ 12:35 UTC
Wind
  • 330° at 6 KTS
Visibility
10 SM
Flight Rules
VFR
Cloud Levels
  • Scattered at 3,700' AGL
  • Overcast at 5,000' AGL
Temperature
-16°C / 3°F
Dewpoint
-20°C / -4°F
Humidity
72%
Altimeter
30.61" Hg
Pressure
1036.62 hPa